Terminal Aerodrome Forecast
Issued by NWS

Home | Current Version | Previous Version | Text Only | Print | Product List | Glossary Off
Versions: 1 2 3 4 5 6 7 8 9 10 11 12 13 14 15 16

237
FTUS43 KTOP 231720
TAFFOE
TAF
KFOE 231720Z 2318/2418 18012KT P6SM FEW050
     FM240000 14007KT P6SM FEW250
     FM241400 17010KT P6SM FEW040 SCT250=

USA.gov is the U.S. government's official web portal to all federal, state and local government web resources and services.